sensor_id;sensor_type;location;lat;lon;timestamp;P1;durP1;ratioP1;P2;durP2;ratioP2
58015;SDS011;43809;52.110;20.964;2023-02-07T00:01:38;83.97;;;38.25;;
58015;SDS011;43809;52.110;20.964;2023-02-07T00:03:39;88.60;;;40.10;;
58015;SDS011;43809;52.110;20.964;2023-02-07T00:05:39;90.68;;;41.17;;
58015;SDS011;43809;52.110;20.964;2023-02-07T00:07:40;85.65;;;39.55;;
58015;SDS011;43809;52.110;20.964;2023-02-07T00:09:40;95.47;;;41.63;;
58015;SDS011;43809;52.110;20.964;2023-02-07T00:11:40;84.30;;;38.60;;
58015;SDS011;43809;52.110;20.964;2023-02-07T00:13:44;86.10;;;40.00;;
58015;SDS011;43809;52.110;20.964;2023-02-07T00:15:45;78.90;;;36.03;;
58015;SDS011;43809;52.110;20.964;2023-02-07T00:17:45;91.15;;;40.83;;
58015;SDS011;43809;52.110;20.964;2023-02-07T00:19:45;79.25;;;38.38;;
58015;SDS011;43809;52.110;20.964;2023-02-07T00:21:45;76.65;;;37.60;;
58015;SDS011;43809;52.110;20.964;2023-02-07T00:23:46;86.50;;;40.88;;
58015;SDS011;43809;52.110;20.964;2023-02-07T00:25:46;89.05;;;39.50;;
58015;SDS011;43809;52.110;20.964;2023-02-07T00:27:46;85.53;;;40.15;;
58015;SDS011;43809;52.110;20.964;2023-02-07T00:29:46;82.72;;;38.05;;
58015;SDS011;43809;52.110;20.964;2023-02-07T00:31:47;90.45;;;39.50;;
58015;SDS011;43809;52.110;20.964;2023-02-07T00:33:48;77.30;;;37.35;;
58015;SDS011;43809;52.110;20.964;2023-02-07T00:35:55;79.13;;;37.00;;
58015;SDS011;43809;52.110;20.964;2023-02-07T00:37:55;83.40;;;38.15;;
58015;SDS011;43809;52.110;20.964;2023-02-07T00:39:55;82.72;;;38.05;;
58015;SDS011;43809;52.110;20.964;2023-02-07T00:41:56;80.28;;;37.75;;
58015;SDS011;43809;52.110;20.964;2023-02-07T00:43:56;72.72;;;35.33;;
58015;SDS011;43809;52.110;20.964;2023-02-07T00:45:59;95.45;;;41.20;;
58015;SDS011;43809;52.110;20.964;2023-02-07T00:48:00;91.38;;;39.70;;
58015;SDS011;43809;52.110;20.964;2023-02-07T00:50:06;89.35;;;39.97;;
58015;SDS011;43809;52.110;20.964;2023-02-07T00:52:06;90.93;;;39.80;;
58015;SDS011;43809;52.110;20.964;2023-02-07T00:54:06;89.38;;;40.28;;
58015;SDS011;43809;52.110;20.964;2023-02-07T00:56:07;82.25;;;38.65;;
58015;SDS011;43809;52.110;20.964;2023-02-07T00:58:07;86.07;;;38.95;;
58015;SDS011;43809;52.110;20.964;2023-02-07T01:00:08;76.93;;;37.13;;
58015;SDS011;43809;52.110;20.964;2023-02-07T01:02:09;82.40;;;37.75;;
58015;SDS011;43809;52.110;20.964;2023-02-07T01:04:10;87.60;;;38.13;;
58015;SDS011;43809;52.110;20.964;2023-02-07T01:06:10;76.45;;;37.25;;
58015;SDS011;43809;52.110;20.964;2023-02-07T01:08:10;90.93;;;41.35;;
58015;SDS011;43809;52.110;20.964;2023-02-07T01:10:10;90.25;;;41.53;;
58015;SDS011;43809;52.110;20.964;2023-02-07T01:12:10;88.80;;;41.58;;
58015;SDS011;43809;52.110;20.964;2023-02-07T01:14:10;96.35;;;43.78;;
58015;SDS011;43809;52.110;20.964;2023-02-07T01:16:21;93.43;;;43.05;;
58015;SDS011;43809;52.110;20.964;2023-02-07T01:18:22;87.50;;;41.05;;
58015;SDS011;43809;52.110;20.964;2023-02-07T01:20:22;87.18;;;40.67;;
58015;SDS011;43809;52.110;20.964;2023-02-07T01:22:22;87.97;;;41.47;;
58015;SDS011;43809;52.110;20.964;2023-02-07T01:24:23;95.15;;;44.25;;
58015;SDS011;43809;52.110;20.964;2023-02-07T01:26:23;91.63;;;41.90;;
58015;SDS011;43809;52.110;20.964;2023-02-07T01:28:24;92.47;;;42.47;;
58015;SDS011;43809;52.110;20.964;2023-02-07T01:30:24;94.60;;;42.78;;
58015;SDS011;43809;52.110;20.964;2023-02-07T01:32:24;89.72;;;41.58;;
58015;SDS011;43809;52.110;20.964;2023-02-07T01:34:24;90.30;;;41.75;;
58015;SDS011;43809;52.110;20.964;2023-02-07T01:36:26;88.45;;;39.90;;
58015;SDS011;43809;52.110;20.964;2023-02-07T01:38:26;82.07;;;38.30;;
58015;SDS011;43809;52.110;20.964;2023-02-07T01:40:26;94.95;;;40.60;;
58015;SDS011;43809;52.110;20.964;2023-02-07T01:42:27;90.30;;;40.63;;
58015;SDS011;43809;52.110;20.964;2023-02-07T01:46:28;82.30;;;38.13;;
58015;SDS011;43809;52.110;20.964;2023-02-07T01:48:30;76.88;;;37.53;;
58015;SDS011;43809;52.110;20.964;2023-02-07T01:50:31;88.07;;;38.38;;
58015;SDS011;43809;52.110;20.964;2023-02-07T01:52:33;90.03;;;42.58;;
58015;SDS011;43809;52.110;20.964;2023-02-07T01:54:35;88.88;;;40.85;;
58015;SDS011;43809;52.110;20.964;2023-02-07T01:56:36;88.25;;;40.83;;
58015;SDS011;43809;52.110;20.964;2023-02-07T01:58:38;78.40;;;38.42;;
58015;SDS011;43809;52.110;20.964;2023-02-07T02:00:39;79.78;;;39.03;;
58015;SDS011;43809;52.110;20.964;2023-02-07T02:02:39;89.43;;;40.78;;
58015;SDS011;43809;52.110;20.964;2023-02-07T02:04:39;90.85;;;40.70;;
58015;SDS011;43809;52.110;20.964;2023-02-07T02:06:40;87.03;;;39.85;;
58015;SDS011;43809;52.110;20.964;2023-02-07T02:08:40;81.47;;;38.40;;
58015;SDS011;43809;52.110;20.964;2023-02-07T02:17:15;91.07;;;41.25;;
58015;SDS011;43809;52.110;20.964;2023-02-07T02:32:11;84.93;;;37.75;;
58015;SDS011;43809;52.110;20.964;2023-02-07T02:34:17;80.78;;;38.25;;
58015;SDS011;43809;52.110;20.964;2023-02-07T02:36:33;78.93;;;37.05;;
58015;SDS011;43809;52.110;20.964;2023-02-07T02:40:56;79.35;;;38.63;;
58015;SDS011;43809;52.110;20.964;2023-02-07T02:45:00;83.55;;;37.53;;
58015;SDS011;43809;52.110;20.964;2023-02-07T02:47:01;85.45;;;40.08;;
58015;SDS011;43809;52.110;20.964;2023-02-07T02:49:02;75.75;;;37.42;;
58015;SDS011;43809;52.110;20.964;2023-02-07T02:51:02;77.63;;;35.28;;
58015;SDS011;43809;52.110;20.964;2023-02-07T02:53:03;68.03;;;33.92;;
58015;SDS011;43809;52.110;20.964;2023-02-07T02:55:03;75.22;;;37.50;;
58015;SDS011;43809;52.110;20.964;2023-02-07T03:03:58;80.05;;;39.25;;
58015;SDS011;43809;52.110;20.964;2023-02-07T03:08:35;75.88;;;35.95;;
58015;SDS011;43809;52.110;20.964;2023-02-07T03:12:50;74.93;;;36.63;;
58015;SDS011;43809;52.110;20.964;2023-02-07T03:17:05;79.88;;;36.97;;
58015;SDS011;43809;52.110;20.964;2023-02-07T03:19:12;80.70;;;37.85;;
58015;SDS011;43809;52.110;20.964;2023-02-07T03:23:14;73.97;;;35.47;;
58015;SDS011;43809;52.110;20.964;2023-02-07T03:25:15;71.63;;;34.72;;
58015;SDS011;43809;52.110;20.964;2023-02-07T03:27:17;73.68;;;34.97;;
58015;SDS011;43809;52.110;20.964;2023-02-07T03:29:19;79.50;;;36.87;;
58015;SDS011;43809;52.110;20.964;2023-02-07T03:31:20;78.95;;;38.38;;
58015;SDS011;43809;52.110;20.964;2023-02-07T03:33:23;73.65;;;35.65;;
58015;SDS011;43809;52.110;20.964;2023-02-07T03:37:32;71.65;;;34.03;;
58015;SDS011;43809;52.110;20.964;2023-02-07T03:39:33;72.85;;;34.42;;
58015;SDS011;43809;52.110;20.964;2023-02-07T03:41:38;73.85;;;35.83;;
58015;SDS011;43809;52.110;20.964;2023-02-07T03:43:40;68.60;;;32.80;;
58015;SDS011;43809;52.110;20.964;2023-02-07T03:45:41;71.50;;;35.00;;
58015;SDS011;43809;52.110;20.964;2023-02-07T03:47:41;79.63;;;36.97;;
58015;SDS011;43809;52.110;20.964;2023-02-07T03:49:42;76.45;;;36.42;;
58015;SDS011;43809;52.110;20.964;2023-02-07T03:51:42;75.75;;;37.58;;
58015;SDS011;43809;52.110;20.964;2023-02-07T03:53:42;71.65;;;35.20;;
58015;SDS011;43809;52.110;20.964;2023-02-07T03:55:43;77.93;;;37.50;;
58015;SDS011;43809;52.110;20.964;2023-02-07T03:57:43;69.75;;;35.53;;
58015;SDS011;43809;52.110;20.964;2023-02-07T03:59:43;79.70;;;35.45;;
58015;SDS011;43809;52.110;20.964;2023-02-07T04:01:43;78.70;;;37.50;;
58015;SDS011;43809;52.110;20.964;2023-02-07T04:03:43;76.05;;;37.22;;
58015;SDS011;43809;52.110;20.964;2023-02-07T04:05:44;71.88;;;36.72;;
58015;SDS011;43809;52.110;20.964;2023-02-07T04:07:45;73.93;;;35.85;;
58015;SDS011;43809;52.110;20.964;2023-02-07T04:09:45;72.13;;;34.05;;
58015;SDS011;43809;52.110;20.964;2023-02-07T04:11:48;70.72;;;34.83;;
58015;SDS011;43809;52.110;20.964;2023-02-07T04:13:48;68.20;;;33.03;;
58015;SDS011;43809;52.110;20.964;2023-02-07T04:15:49;79.45;;;37.40;;
58015;SDS011;43809;52.110;20.964;2023-02-07T04:17:49;77.65;;;35.70;;
58015;SDS011;43809;52.110;20.964;2023-02-07T04:19:49;75.18;;;36.33;;
58015;SDS011;43809;52.110;20.964;2023-02-07T04:21:49;72.97;;;37.78;;
58015;SDS011;43809;52.110;20.964;2023-02-07T04:23:49;75.03;;;37.05;;
58015;SDS011;43809;52.110;20.964;2023-02-07T04:25:49;72.97;;;36.33;;
58015;SDS011;43809;52.110;20.964;2023-02-07T04:27:50;75.93;;;37.30;;
58015;SDS011;43809;52.110;20.964;2023-02-07T04:29:50;74.78;;;36.65;;
58015;SDS011;43809;52.110;20.964;2023-02-07T04:31:50;77.55;;;35.22;;
58015;SDS011;43809;52.110;20.964;2023-02-07T04:33:50;74.95;;;35.15;;
58015;SDS011;43809;52.110;20.964;2023-02-07T04:35:57;70.97;;;36.25;;
58015;SDS011;43809;52.110;20.964;2023-02-07T04:37:58;68.45;;;34.53;;
58015;SDS011;43809;52.110;20.964;2023-02-07T04:39:58;73.80;;;36.83;;
58015;SDS011;43809;52.110;20.964;2023-02-07T04:41:58;72.80;;;35.25;;
58015;SDS011;43809;52.110;20.964;2023-02-07T04:43:59;70.47;;;34.42;;
58015;SDS011;43809;52.110;20.964;2023-02-07T04:45:59;76.65;;;35.90;;
58015;SDS011;43809;52.110;20.964;2023-02-07T04:47:59;71.40;;;35.03;;
58015;SDS011;43809;52.110;20.964;2023-02-07T04:49:59;76.90;;;37.63;;
58015;SDS011;43809;52.110;20.964;2023-02-07T04:52:00;75.47;;;36.10;;
58015;SDS011;43809;52.110;20.964;2023-02-07T04:54:00;72.70;;;35.50;;
58015;SDS011;43809;52.110;20.964;2023-02-07T04:56:00;69.95;;;34.90;;
58015;SDS011;43809;52.110;20.964;2023-02-07T04:58:00;70.13;;;33.78;;
58015;SDS011;43809;52.110;20.964;2023-02-07T05:00:01;70.82;;;33.85;;
58015;SDS011;43809;52.110;20.964;2023-02-07T05:02:01;64.00;;;32.25;;
58015;SDS011;43809;52.110;20.964;2023-02-07T05:04:02;64.88;;;31.02;;
58015;SDS011;43809;52.110;20.964;2023-02-07T05:06:02;68.07;;;32.25;;
58015;SDS011;43809;52.110;20.964;2023-02-07T05:08:02;71.68;;;34.22;;
58015;SDS011;43809;52.110;20.964;2023-02-07T05:10:02;64.82;;;31.35;;
58015;SDS011;43809;52.110;20.964;2023-02-07T05:12:03;64.55;;;30.55;;
58015;SDS011;43809;52.110;20.964;2023-02-07T05:14:03;65.72;;;32.17;;
58015;SDS011;43809;52.110;20.964;2023-02-07T05:16:03;69.03;;;33.13;;
58015;SDS011;43809;52.110;20.964;2023-02-07T05:18:04;66.57;;;33.50;;
58015;SDS011;43809;52.110;20.964;2023-02-07T05:20:05;71.68;;;33.38;;
58015;SDS011;43809;52.110;20.964;2023-02-07T05:22:05;63.78;;;32.38;;
58015;SDS011;43809;52.110;20.964;2023-02-07T05:24:05;61.78;;;33.08;;
58015;SDS011;43809;52.110;20.964;2023-02-07T05:26:06;65.38;;;32.65;;
58015;SDS011;43809;52.110;20.964;2023-02-07T05:28:06;69.85;;;33.72;;
58015;SDS011;43809;52.110;20.964;2023-02-07T05:30:06;71.43;;;33.03;;
58015;SDS011;43809;52.110;20.964;2023-02-07T05:32:08;64.78;;;31.80;;
58015;SDS011;43809;52.110;20.964;2023-02-07T05:34:28;61.90;;;30.27;;
58015;SDS011;43809;52.110;20.964;2023-02-07T05:36:28;61.33;;;29.35;;
58015;SDS011;43809;52.110;20.964;2023-02-07T05:38:29;58.53;;;28.88;;
58015;SDS011;43809;52.110;20.964;2023-02-07T05:40:29;56.00;;;27.73;;
58015;SDS011;43809;52.110;20.964;2023-02-07T05:42:29;55.05;;;26.98;;
58015;SDS011;43809;52.110;20.964;2023-02-07T05:44:30;53.15;;;27.63;;
58015;SDS011;43809;52.110;20.964;2023-02-07T05:46:30;53.35;;;26.42;;
58015;SDS011;43809;52.110;20.964;2023-02-07T05:48:30;51.97;;;26.10;;
58015;SDS011;43809;52.110;20.964;2023-02-07T05:50:30;49.50;;;26.25;;
58015;SDS011;43809;52.110;20.964;2023-02-07T05:52:31;53.20;;;26.25;;
58015;SDS011;43809;52.110;20.964;2023-02-07T05:54:34;51.92;;;25.25;;
58015;SDS011;43809;52.110;20.964;2023-02-07T05:56:35;48.13;;;25.77;;
58015;SDS011;43809;52.110;20.964;2023-02-07T05:58:35;51.35;;;25.67;;
58015;SDS011;43809;52.110;20.964;2023-02-07T06:00:35;50.33;;;25.73;;
58015;SDS011;43809;52.110;20.964;2023-02-07T06:02:35;48.65;;;23.83;;
58015;SDS011;43809;52.110;20.964;2023-02-07T06:04:35;45.55;;;24.38;;
58015;SDS011;43809;52.110;20.964;2023-02-07T06:06:36;49.17;;;25.10;;
58015;SDS011;43809;52.110;20.964;2023-02-07T06:08:36;45.83;;;22.80;;
58015;SDS011;43809;52.110;20.964;2023-02-07T06:10:36;45.55;;;22.58;;
58015;SDS011;43809;52.110;20.964;2023-02-07T06:12:36;46.05;;;23.48;;
58015;SDS011;43809;52.110;20.964;2023-02-07T06:14:37;42.88;;;22.98;;
58015;SDS011;43809;52.110;20.964;2023-02-07T06:16:37;42.38;;;21.38;;
58015;SDS011;43809;52.110;20.964;2023-02-07T06:18:37;49.72;;;22.15;;
58015;SDS011;43809;52.110;20.964;2023-02-07T06:20:37;45.65;;;22.50;;
58015;SDS011;43809;52.110;20.964;2023-02-07T06:22:37;37.83;;;20.40;;
58015;SDS011;43809;52.110;20.964;2023-02-07T06:24:38;44.08;;;23.75;;
58015;SDS011;43809;52.110;20.964;2023-02-07T06:26:38;44.42;;;21.95;;
58015;SDS011;43809;52.110;20.964;2023-02-07T06:28:38;44.25;;;20.92;;
58015;SDS011;43809;52.110;20.964;2023-02-07T06:30:38;39.10;;;20.58;;
58015;SDS011;43809;52.110;20.964;2023-02-07T06:32:47;43.08;;;21.63;;
58015;SDS011;43809;52.110;20.964;2023-02-07T06:34:54;41.53;;;20.85;;
58015;SDS011;43809;52.110;20.964;2023-02-07T06:36:54;39.65;;;20.40;;
58015;SDS011;43809;52.110;20.964;2023-02-07T06:38:54;44.42;;;21.27;;
58015;SDS011;43809;52.110;20.964;2023-02-07T06:40:55;41.88;;;21.10;;
58015;SDS011;43809;52.110;20.964;2023-02-07T06:42:55;41.03;;;21.17;;
58015;SDS011;43809;52.110;20.964;2023-02-07T06:44:56;39.47;;;21.58;;
58015;SDS011;43809;52.110;20.964;2023-02-07T06:46:56;39.88;;;20.38;;
58015;SDS011;43809;52.110;20.964;2023-02-07T06:48:56;43.47;;;21.05;;
58015;SDS011;43809;52.110;20.964;2023-02-07T06:50:56;37.22;;;20.70;;
58015;SDS011;43809;52.110;20.964;2023-02-07T06:52:56;42.10;;;20.98;;
58015;SDS011;43809;52.110;20.964;2023-02-07T06:55:01;39.75;;;20.67;;
58015;SDS011;43809;52.110;20.964;2023-02-07T06:57:01;40.28;;;20.60;;
58015;SDS011;43809;52.110;20.964;2023-02-07T06:59:01;40.17;;;20.25;;
58015;SDS011;43809;52.110;20.964;2023-02-07T07:01:01;40.63;;;20.25;;
58015;SDS011;43809;52.110;20.964;2023-02-07T07:03:02;39.17;;;20.77;;
58015;SDS011;43809;52.110;20.964;2023-02-07T07:05:02;42.25;;;21.00;;
58015;SDS011;43809;52.110;20.964;2023-02-07T07:07:02;38.55;;;21.08;;
58015;SDS011;43809;52.110;20.964;2023-02-07T07:09:03;39.10;;;20.80;;
58015;SDS011;43809;52.110;20.964;2023-02-07T07:11:03;42.05;;;22.38;;
58015;SDS011;43809;52.110;20.964;2023-02-07T07:13:03;39.33;;;19.45;;
58015;SDS011;43809;52.110;20.964;2023-02-07T07:15:03;38.97;;;20.63;;
58015;SDS011;43809;52.110;20.964;2023-02-07T07:17:04;36.63;;;19.63;;
58015;SDS011;43809;52.110;20.964;2023-02-07T07:19:04;35.63;;;19.88;;
58015;SDS011;43809;52.110;20.964;2023-02-07T07:21:04;38.42;;;21.20;;
58015;SDS011;43809;52.110;20.964;2023-02-07T07:23:05;36.83;;;20.42;;
58015;SDS011;43809;52.110;20.964;2023-02-07T07:25:05;39.47;;;20.95;;
58015;SDS011;43809;52.110;20.964;2023-02-07T07:27:05;41.00;;;22.13;;
58015;SDS011;43809;52.110;20.964;2023-02-07T07:29:05;38.78;;;20.42;;
58015;SDS011;43809;52.110;20.964;2023-02-07T07:31:07;36.55;;;20.13;;
58015;SDS011;43809;52.110;20.964;2023-02-07T07:33:08;42.63;;;21.27;;
58015;SDS011;43809;52.110;20.964;2023-02-07T07:35:08;40.20;;;21.50;;
58015;SDS011;43809;52.110;20.964;2023-02-07T07:37:10;42.05;;;22.58;;
58015;SDS011;43809;52.110;20.964;2023-02-07T07:39:11;37.78;;;20.73;;
58015;SDS011;43809;52.110;20.964;2023-02-07T07:41:12;37.03;;;20.52;;
58015;SDS011;43809;52.110;20.964;2023-02-07T07:43:12;37.13;;;20.15;;
58015;SDS011;43809;52.110;20.964;2023-02-07T07:45:13;40.55;;;20.48;;
58015;SDS011;43809;52.110;20.964;2023-02-07T07:47:13;37.95;;;22.20;;
58015;SDS011;43809;52.110;20.964;2023-02-07T07:49:14;37.22;;;21.70;;
58015;SDS011;43809;52.110;20.964;2023-02-07T07:51:14;41.55;;;21.58;;
58015;SDS011;43809;52.110;20.964;2023-02-07T07:53:14;37.40;;;20.75;;
58015;SDS011;43809;52.110;20.964;2023-02-07T07:55:15;37.28;;;21.52;;
58015;SDS011;43809;52.110;20.964;2023-02-07T07:57:15;38.40;;;21.20;;
58015;SDS011;43809;52.110;20.964;2023-02-07T07:59:15;38.63;;;20.63;;
58015;SDS011;43809;52.110;20.964;2023-02-07T08:01:16;38.65;;;21.80;;
58015;SDS011;43809;52.110;20.964;2023-02-07T08:03:17;42.05;;;21.95;;
58015;SDS011;43809;52.110;20.964;2023-02-07T08:05:20;39.70;;;22.13;;
58015;SDS011;43809;52.110;20.964;2023-02-07T08:07:20;41.60;;;21.55;;
58015;SDS011;43809;52.110;20.964;2023-02-07T08:09:21;39.05;;;20.02;;
58015;SDS011;43809;52.110;20.964;2023-02-07T08:11:21;35.70;;;20.15;;
58015;SDS011;43809;52.110;20.964;2023-02-07T08:13:21;38.35;;;20.65;;
58015;SDS011;43809;52.110;20.964;2023-02-07T08:15:22;38.58;;;20.98;;
58015;SDS011;43809;52.110;20.964;2023-02-07T08:17:22;36.65;;;21.23;;
58015;SDS011;43809;52.110;20.964;2023-02-07T08:19:23;38.20;;;20.00;;
58015;SDS011;43809;52.110;20.964;2023-02-07T08:21:23;34.60;;;18.13;;
58015;SDS011;43809;52.110;20.964;2023-02-07T08:23:25;36.10;;;19.35;;
58015;SDS011;43809;52.110;20.964;2023-02-07T08:25:25;33.92;;;18.73;;
58015;SDS011;43809;52.110;20.964;2023-02-07T08:27:26;41.30;;;21.20;;
58015;SDS011;43809;52.110;20.964;2023-02-07T08:29:26;40.40;;;21.33;;
58015;SDS011;43809;52.110;20.964;2023-02-07T08:31:26;34.90;;;21.48;;
58015;SDS011;43809;52.110;20.964;2023-02-07T08:33:26;35.28;;;20.42;;
58015;SDS011;43809;52.110;20.964;2023-02-07T08:35:26;39.67;;;20.55;;
58015;SDS011;43809;52.110;20.964;2023-02-07T08:37:27;35.80;;;20.23;;
58015;SDS011;43809;52.110;20.964;2023-02-07T08:39:27;37.95;;;19.58;;
58015;SDS011;43809;52.110;20.964;2023-02-07T08:41:27;37.75;;;20.33;;
58015;SDS011;43809;52.110;20.964;2023-02-07T08:43:27;35.72;;;19.05;;
58015;SDS011;43809;52.110;20.964;2023-02-07T08:45:27;39.15;;;20.52;;
58015;SDS011;43809;52.110;20.964;2023-02-07T08:47:27;36.80;;;19.45;;
58015;SDS011;43809;52.110;20.964;2023-02-07T08:49:28;39.08;;;20.35;;
58015;SDS011;43809;52.110;20.964;2023-02-07T08:51:28;37.80;;;21.40;;
58015;SDS011;43809;52.110;20.964;2023-02-07T08:53:28;36.22;;;20.00;;
58015;SDS011;43809;52.110;20.964;2023-02-07T08:55:28;40.92;;;21.40;;
58015;SDS011;43809;52.110;20.964;2023-02-07T08:57:29;42.10;;;21.60;;
58015;SDS011;43809;52.110;20.964;2023-02-07T08:59:30;38.92;;;21.27;;
58015;SDS011;43809;52.110;20.964;2023-02-07T09:01:30;35.97;;;19.65;;
58015;SDS011;43809;52.110;20.964;2023-02-07T09:03:30;34.50;;;19.02;;
58015;SDS011;43809;52.110;20.964;2023-02-07T09:05:30;34.10;;;19.50;;
58015;SDS011;43809;52.110;20.964;2023-02-07T09:07:34;30.48;;;19.20;;
58015;SDS011;43809;52.110;20.964;2023-02-07T09:09:34;34.63;;;19.30;;
58015;SDS011;43809;52.110;20.964;2023-02-07T09:11:35;33.13;;;18.45;;
58015;SDS011;43809;52.110;20.964;2023-02-07T09:13:35;36.17;;;19.92;;
58015;SDS011;43809;52.110;20.964;2023-02-07T09:15:36;36.55;;;20.40;;
58015;SDS011;43809;52.110;20.964;2023-02-07T09:17:36;36.95;;;18.50;;
58015;SDS011;43809;52.110;20.964;2023-02-07T09:19:36;38.38;;;20.40;;
58015;SDS011;43809;52.110;20.964;2023-02-07T09:21:36;36.40;;;20.52;;
58015;SDS011;43809;52.110;20.964;2023-02-07T09:23:36;34.33;;;19.42;;
58015;SDS011;43809;52.110;20.964;2023-02-07T09:25:37;36.33;;;18.85;;
58015;SDS011;43809;52.110;20.964;2023-02-07T09:27:38;30.55;;;17.13;;
58015;SDS011;43809;52.110;20.964;2023-02-07T09:29:38;31.42;;;17.80;;
58015;SDS011;43809;52.110;20.964;2023-02-07T09:31:38;30.60;;;17.75;;
58015;SDS011;43809;52.110;20.964;2023-02-07T09:33:40;31.30;;;17.60;;
58015;SDS011;43809;52.110;20.964;2023-02-07T09:35:41;32.33;;;16.95;;
58015;SDS011;43809;52.110;20.964;2023-02-07T09:37:42;30.92;;;18.02;;
58015;SDS011;43809;52.110;20.964;2023-02-07T09:39:42;27.10;;;15.63;;
58015;SDS011;43809;52.110;20.964;2023-02-07T09:41:47;31.38;;;16.55;;
58015;SDS011;43809;52.110;20.964;2023-02-07T09:43:59;36.30;;;18.67;;
58015;SDS011;43809;52.110;20.964;2023-02-07T09:46:02;35.45;;;19.98;;
58015;SDS011;43809;52.110;20.964;2023-02-07T09:48:05;35.17;;;18.70;;
58015;SDS011;43809;52.110;20.964;2023-02-07T09:50:12;33.08;;;19.05;;
58015;SDS011;43809;52.110;20.964;2023-02-07T09:52:17;31.15;;;17.40;;
58015;SDS011;43809;52.110;20.964;2023-02-07T09:54:22;30.38;;;18.00;;
58015;SDS011;43809;52.110;20.964;2023-02-07T09:56:24;40.60;;;22.50;;
58015;SDS011;43809;52.110;20.964;2023-02-07T10:01:03;37.40;;;20.15;;
58015;SDS011;43809;52.110;20.964;2023-02-07T10:03:12;31.55;;;19.85;;
58015;SDS011;43809;52.110;20.964;2023-02-07T10:05:15;30.33;;;17.67;;
58015;SDS011;43809;52.110;20.964;2023-02-07T10:07:16;31.05;;;18.15;;
58015;SDS011;43809;52.110;20.964;2023-02-07T10:09:17;31.67;;;16.90;;
58015;SDS011;43809;52.110;20.964;2023-02-07T10:28:26;26.33;;;14.38;;
58015;SDS011;43809;52.110;20.964;2023-02-07T10:30:30;24.95;;;14.38;;
58015;SDS011;43809;52.110;20.964;2023-02-07T10:32:32;28.95;;;15.73;;
58015;SDS011;43809;52.110;20.964;2023-02-07T10:34:34;26.58;;;14.77;;
58015;SDS011;43809;52.110;20.964;2023-02-07T10:36:35;31.63;;;15.05;;
58015;SDS011;43809;52.110;20.964;2023-02-07T10:38:48;28.77;;;14.65;;
58015;SDS011;43809;52.110;20.964;2023-02-07T10:40:55;28.80;;;14.05;;
58015;SDS011;43809;52.110;20.964;2023-02-07T10:43:04;29.25;;;15.25;;
58015;SDS011;43809;52.110;20.964;2023-02-07T10:45:06;26.35;;;13.93;;
58015;SDS011;43809;52.110;20.964;2023-02-07T10:47:08;25.60;;;14.45;;
58015;SDS011;43809;52.110;20.964;2023-02-07T10:49:25;26.85;;;13.82;;
58015;SDS011;43809;52.110;20.964;2023-02-07T10:51:33;26.63;;;14.48;;
58015;SDS011;43809;52.110;20.964;2023-02-07T10:55:44;27.92;;;14.10;;
58015;SDS011;43809;52.110;20.964;2023-02-07T10:57:54;25.67;;;13.30;;
58015;SDS011;43809;52.110;20.964;2023-02-07T11:00:06;27.92;;;14.02;;
58015;SDS011;43809;52.110;20.964;2023-02-07T11:04:35;23.80;;;12.65;;
58015;SDS011;43809;52.110;20.964;2023-02-07T11:06:35;28.23;;;13.65;;
58015;SDS011;43809;52.110;20.964;2023-02-07T11:08:35;27.73;;;13.07;;
58015;SDS011;43809;52.110;20.964;2023-02-07T11:10:38;24.30;;;12.93;;
58015;SDS011;43809;52.110;20.964;2023-02-07T11:12:48;27.60;;;13.18;;
58015;SDS011;43809;52.110;20.964;2023-02-07T11:15:02;22.42;;;12.40;;
58015;SDS011;43809;52.110;20.964;2023-02-07T11:17:03;27.80;;;12.63;;
58015;SDS011;43809;52.110;20.964;2023-02-07T11:19:04;22.92;;;11.43;;
58015;SDS011;43809;52.110;20.964;2023-02-07T11:21:06;27.33;;;14.70;;
58015;SDS011;43809;52.110;20.964;2023-02-07T11:23:10;26.20;;;13.18;;
58015;SDS011;43809;52.110;20.964;2023-02-07T11:25:11;30.10;;;13.35;;
58015;SDS011;43809;52.110;20.964;2023-02-07T11:27:15;30.88;;;13.45;;
58015;SDS011;43809;52.110;20.964;2023-02-07T11:29:17;22.88;;;10.90;;
58015;SDS011;43809;52.110;20.964;2023-02-07T11:31:18;22.05;;;11.23;;
58015;SDS011;43809;52.110;20.964;2023-02-07T11:33:23;25.23;;;11.63;;
58015;SDS011;43809;52.110;20.964;2023-02-07T11:35:24;18.95;;;10.68;;
58015;SDS011;43809;52.110;20.964;2023-02-07T11:37:26;23.75;;;11.85;;
58015;SDS011;43809;52.110;20.964;2023-02-07T11:41:29;17.17;;;10.23;;
58015;SDS011;43809;52.110;20.964;2023-02-07T11:43:29;20.55;;;11.25;;
58015;SDS011;43809;52.110;20.964;2023-02-07T11:45:30;19.35;;;11.27;;
58015;SDS011;43809;52.110;20.964;2023-02-07T11:47:31;23.60;;;11.68;;
58015;SDS011;43809;52.110;20.964;2023-02-07T11:49:38;21.85;;;11.32;;
58015;SDS011;43809;52.110;20.964;2023-02-07T11:51:39;26.50;;;11.82;;
58015;SDS011;43809;52.110;20.964;2023-02-07T11:53:41;21.10;;;11.68;;
58015;SDS011;43809;52.110;20.964;2023-02-07T11:55:43;19.63;;;11.45;;
58015;SDS011;43809;52.110;20.964;2023-02-07T11:57:43;19.85;;;11.50;;
58015;SDS011;43809;52.110;20.964;2023-02-07T12:00:06;19.20;;;11.43;;
58015;SDS011;43809;52.110;20.964;2023-02-07T12:02:18;21.35;;;11.90;;
58015;SDS011;43809;52.110;20.964;2023-02-07T12:04:53;25.83;;;11.98;;
58015;SDS011;43809;52.110;20.964;2023-02-07T12:06:54;19.65;;;11.57;;
58015;SDS011;43809;52.110;20.964;2023-02-07T12:08:56;21.83;;;12.32;;
58015;SDS011;43809;52.110;20.964;2023-02-07T12:10:57;24.73;;;11.77;;
58015;SDS011;43809;52.110;20.964;2023-02-07T12:16:59;23.73;;;13.00;;
58015;SDS011;43809;52.110;20.964;2023-02-07T12:23:07;22.47;;;12.93;;
58015;SDS011;43809;52.110;20.964;2023-02-07T12:25:17;22.70;;;11.98;;
58015;SDS011;43809;52.110;20.964;2023-02-07T12:27:19;24.42;;;12.57;;
58015;SDS011;43809;52.110;20.964;2023-02-07T12:29:46;23.38;;;12.98;;
58015;SDS011;43809;52.110;20.964;2023-02-07T12:32:04;22.60;;;12.35;;
58015;SDS011;43809;52.110;20.964;2023-02-07T12:34:42;23.55;;;13.15;;
58015;SDS011;43809;52.110;20.964;2023-02-07T12:36:33;21.00;;;11.48;;
58015;SDS011;43809;52.110;20.964;2023-02-07T12:38:37;22.88;;;12.40;;
58015;SDS011;43809;52.110;20.964;2023-02-07T12:40:46;24.80;;;12.65;;
58015;SDS011;43809;52.110;20.964;2023-02-07T12:45:07;22.33;;;12.27;;
58015;SDS011;43809;52.110;20.964;2023-02-07T12:47:15;19.60;;;11.88;;
58015;SDS011;43809;52.110;20.964;2023-02-07T12:51:30;21.05;;;12.00;;
58015;SDS011;43809;52.110;20.964;2023-02-07T12:53:40;20.70;;;12.07;;
58015;SDS011;43809;52.110;20.964;2023-02-07T13:02:23;23.42;;;11.35;;
58015;SDS011;43809;52.110;20.964;2023-02-07T13:08:43;19.67;;;11.10;;
58015;SDS011;43809;52.110;20.964;2023-02-07T13:12:57;22.07;;;11.60;;
58015;SDS011;43809;52.110;20.964;2023-02-07T13:15:02;22.08;;;12.25;;
58015;SDS011;43809;52.110;20.964;2023-02-07T13:21:26;24.88;;;11.90;;
58015;SDS011;43809;52.110;20.964;2023-02-07T13:23:30;20.45;;;10.95;;